createdAt,value
2022-10-30T00:00:18.202Z,39.47
2022-10-30T00:02:20.473Z,29.95
2022-10-30T00:04:22.648Z,34.28
2022-10-30T00:06:24.621Z,34.78
2022-10-30T00:08:28.797Z,37.60
2022-10-30T00:10:31.046Z,28.42
2022-10-30T00:12:33.072Z,31.23
2022-10-30T00:14:37.640Z,30.58
2022-10-30T00:16:39.788Z,32.92
2022-10-30T00:18:41.852Z,28.92
2022-10-30T00:20:47.608Z,30.35
2022-10-30T00:22:50.257Z,28.73
2022-10-30T00:24:53.741Z,27.63
2022-10-30T00:27:02.244Z,29.05
2022-10-30T00:29:07.064Z,30.17
2022-10-30T00:31:09.947Z,29.33
2022-10-30T00:33:15.628Z,29.98
2022-10-30T00:35:35.930Z,30.75
2022-10-30T00:37:40.537Z,32.25
2022-10-30T00:39:50.585Z,29.40
2022-10-30T00:41:54.775Z,30.13
2022-10-30T00:43:59.307Z,33.88
2022-10-30T00:46:33.321Z,33.80
2022-10-30T00:48:36.048Z,31.60
2022-10-30T00:50:38.447Z,29.88
2022-10-30T00:52:55.153Z,28.85
2022-10-30T00:55:06.724Z,26.00
2022-10-30T00:57:10.281Z,30.85
2022-10-30T00:59:25.450Z,28.48
2022-10-30T01:01:36.619Z,28.92
2022-10-30T01:03:46.145Z,24.05
2022-10-30T01:05:53.642Z,28.90
2022-10-30T01:07:56.099Z,25.27
2022-10-30T01:09:58.975Z,26.10
2022-10-30T01:12:04.364Z,31.33
2022-10-30T01:14:11.347Z,27.42
2022-10-30T01:16:25.244Z,33.88
2022-10-30T01:19:26.259Z,25.33
2022-10-30T01:22:01.540Z,26.73
2022-10-30T01:24:25.607Z,30.13
2022-10-30T01:27:04.987Z,26.50
2022-10-30T01:29:32.542Z,26.98
2022-10-30T01:31:50.294Z,24.25
2022-10-30T01:34:07.249Z,30.42
2022-10-30T01:36:29.309Z,28.52
2022-10-30T01:38:49.705Z,29.48
2022-10-30T01:40:55.111Z,25.48
2022-10-30T01:43:10.528Z,28.65
2022-10-30T01:45:27.521Z,27.40
2022-10-30T01:47:37.915Z,30.98
2022-10-30T01:50:18.557Z,27.75
2022-10-30T01:52:42.607Z,28.95
2022-10-30T01:55:04.561Z,26.67
2022-10-30T01:57:16.794Z,25.38
2022-10-30T01:59:32.715Z,28.30
2022-10-30T02:01:41.861Z,23.40
2022-10-30T02:03:52.304Z,30.48
2022-10-30T02:05:55.181Z,27.95
2022-10-30T02:07:57.748Z,28.80
2022-10-30T02:10:03.330Z,26.08
2022-10-30T02:12:09.462Z,27.98
2022-10-30T02:14:27.053Z,27.55
2022-10-30T02:16:29.068Z,28.00
2022-10-30T02:18:31.173Z,30.48
2022-10-30T02:20:33.722Z,44.53
2022-10-30T02:22:44.962Z,44.75
2022-10-30T02:24:56.014Z,41.17
2022-10-30T02:27:05.328Z,45.70
2022-10-30T02:29:10.625Z,41.22
2022-10-30T02:31:13.008Z,39.13
2022-10-30T02:35:23.334Z,44.10
2022-10-30T02:37:34.374Z,37.72
2022-10-30T02:39:53.913Z,35.03
2022-10-30T02:41:56.404Z,35.85
2022-10-30T02:43:58.910Z,31.40
2022-10-30T02:46:04.198Z,32.55
2022-10-30T02:48:08.203Z,37.80
2022-10-30T02:50:11.176Z,34.65
2022-10-30T02:52:19.079Z,44.00
2022-10-30T02:54:27.098Z,45.75
2022-10-30T02:58:52.299Z,41.10
2022-10-30T03:00:57.711Z,35.47
2022-10-30T03:02:59.914Z,33.78
2022-10-30T03:05:05.036Z,29.13
2022-10-30T03:07:08.342Z,30.88
2022-10-30T03:09:18.823Z,34.35
2022-10-30T03:11:24.213Z,31.80
2022-10-30T03:13:26.426Z,27.25
2022-10-30T03:15:29.032Z,26.00
2022-10-30T03:17:33.422Z,27.13
2022-10-30T03:19:35.549Z,24.42
2022-10-30T03:21:37.819Z,28.25
2022-10-30T03:23:40.092Z,24.58
2022-10-30T03:25:42.349Z,28.80
2022-10-30T03:27:44.387Z,24.40
2022-10-30T03:29:54.876Z,26.42
2022-10-30T03:31:56.917Z,30.10
2022-10-30T03:33:59.423Z,27.48
2022-10-30T03:36:01.932Z,31.00
2022-10-30T03:38:03.781Z,30.58
2022-10-30T03:40:06.293Z,38.65
2022-10-30T03:42:08.180Z,31.95
2022-10-30T03:44:10.154Z,31.73
2022-10-30T03:46:15.567Z,30.30
2022-10-30T03:48:19.799Z,31.80
2022-10-30T03:50:21.800Z,31.13
2022-10-30T03:52:23.776Z,31.60
2022-10-30T03:54:25.886Z,30.73
2022-10-30T03:56:27.789Z,24.83
2022-10-30T03:58:30.487Z,37.58
2022-10-30T04:00:33.265Z,36.38
2022-10-30T04:02:35.268Z,28.67
2022-10-30T04:04:37.083Z,32.40
2022-10-30T04:06:39.068Z,29.08
2022-10-30T04:08:41.257Z,36.33
2022-10-30T04:10:47.114Z,33.45
2022-10-30T04:12:49.130Z,27.17
2022-10-30T04:14:51.206Z,30.23
2022-10-30T04:16:54.443Z,29.40
2022-10-30T04:18:56.267Z,32.10
2022-10-30T04:21:00.467Z,30.75
2022-10-30T04:23:05.452Z,29.73
2022-10-30T04:25:08.023Z,34.70
2022-10-30T04:27:09.836Z,33.00
2022-10-30T04:29:12.980Z,32.42
2022-10-30T04:31:16.305Z,34.72
2022-10-30T04:33:22.694Z,33.00
2022-10-30T04:35:26.778Z,30.65
2022-10-30T04:37:28.925Z,36.65
2022-10-30T04:39:30.980Z,31.38
2022-10-30T04:41:32.964Z,36.22
2022-10-30T04:43:35.358Z,31.30
2022-10-30T04:45:38.100Z,33.58
2022-10-30T04:47:40.869Z,32.33
2022-10-30T04:49:47.541Z,34.33
2022-10-30T04:51:49.339Z,33.78
2022-10-30T04:53:51.582Z,31.92
2022-10-30T04:55:54.962Z,34.40
2022-10-30T04:57:59.103Z,30.70
2022-10-30T05:00:01.480Z,37.92
2022-10-30T05:02:04.065Z,35.55
2022-10-30T05:04:08.697Z,38.15
2022-10-30T05:06:25.505Z,26.83
2022-10-30T05:08:27.861Z,37.67
2022-10-30T05:10:29.917Z,34.13
2022-10-30T05:12:34.304Z,29.00
2022-10-30T05:14:39.841Z,32.67
2022-10-30T05:16:42.028Z,27.63
2022-10-30T05:18:44.155Z,30.95
2022-10-30T05:20:47.398Z,31.63
2022-10-30T05:22:59.095Z,33.85
2022-10-30T05:25:10.486Z,27.27
2022-10-30T05:27:13.562Z,30.23
2022-10-30T05:29:15.548Z,26.83
2022-10-30T05:31:17.626Z,37.30
2022-10-30T05:33:23.613Z,28.77
2022-10-30T05:35:26.411Z,26.52
2022-10-30T05:37:30.103Z,33.70
2022-10-30T05:41:34.195Z,29.38
2022-10-30T05:43:36.374Z,27.83
2022-10-30T05:45:38.916Z,30.30
2022-10-30T05:47:41.264Z,30.55
2022-10-30T05:49:43.387Z,31.15
2022-10-30T05:51:48.624Z,34.72
2022-10-30T05:53:53.598Z,28.00
2022-10-30T05:55:59.473Z,30.67
2022-10-30T05:58:06.423Z,29.38
2022-10-30T06:00:12.069Z,28.58
2022-10-30T06:02:14.251Z,30.33
2022-10-30T06:04:19.094Z,25.75
2022-10-30T06:06:31.708Z,31.40
2022-10-30T06:08:36.734Z,33.55
2022-10-30T06:10:38.956Z,26.42
2022-10-30T06:12:41.309Z,28.42
2022-10-30T06:14:50.823Z,28.23
2022-10-30T06:16:52.723Z,30.70
2022-10-30T06:18:54.900Z,32.72
2022-10-30T06:20:56.995Z,27.30
2022-10-30T06:23:08.056Z,25.63
2022-10-30T06:25:10.188Z,25.75
2022-10-30T06:27:12.159Z,24.55
2022-10-30T06:29:14.129Z,26.23
2022-10-30T06:31:16.345Z,22.42
2022-10-30T06:33:18.354Z,25.70
2022-10-30T06:35:27.195Z,25.77
2022-10-30T06:37:48.390Z,32.50
2022-10-30T06:40:00.594Z,24.25
2022-10-30T06:42:02.441Z,22.40
2022-10-30T06:44:04.527Z,24.67
2022-10-30T06:46:09.315Z,32.15
2022-10-30T06:48:11.197Z,31.63
2022-10-30T06:50:15.757Z,32.50
2022-10-30T06:52:17.720Z,28.95
2022-10-30T06:54:19.619Z,34.20
2022-10-30T06:56:21.513Z,28.63
2022-10-30T06:58:24.046Z,25.35
2022-10-30T07:00:26.148Z,28.00
2022-10-30T07:02:28.185Z,30.08
2022-10-30T07:04:30.254Z,28.65
2022-10-30T07:06:32.149Z,28.88
2022-10-30T07:08:34.091Z,29.38
2022-10-30T07:10:35.986Z,38.70
2022-10-30T07:12:37.846Z,49.45
2022-10-30T07:14:40.026Z,64.78
2022-10-30T07:16:42.086Z,48.63
2022-10-30T07:18:44.000Z,138.32
2022-10-30T07:20:46.073Z,98.15
2022-10-30T07:22:48.086Z,30.25
2022-10-30T07:24:50.024Z,34.97
2022-10-30T07:26:52.154Z,30.95
2022-10-30T07:28:54.214Z,29.88
2022-10-30T07:30:56.156Z,25.60
2022-10-30T07:33:00.587Z,29.20
2022-10-30T07:35:02.813Z,59.22
2022-10-30T07:37:04.930Z,49.03
2022-10-30T07:39:06.804Z,49.63
2022-10-30T07:41:08.815Z,43.47
2022-10-30T07:43:13.990Z,49.33
2022-10-30T07:45:16.549Z,51.63
2022-10-30T07:50:16.731Z,17.38
2022-10-30T07:52:21.615Z,12.30
2022-10-30T07:54:23.753Z,12.05
2022-10-30T07:56:30.482Z,15.60
2022-10-30T07:58:45.094Z,15.65
2022-10-30T08:00:47.503Z,19.85
2022-10-30T08:03:02.627Z,16.58
2022-10-30T08:05:05.520Z,14.10
2022-10-30T08:07:15.474Z,15.82
2022-10-30T08:09:29.441Z,14.43
2022-10-30T08:14:23.343Z,13.45
2022-10-30T08:16:53.415Z,13.43
2022-10-30T08:19:07.013Z,12.52
2022-10-30T08:21:09.358Z,10.20
2022-10-30T08:23:19.247Z,13.88
2022-10-30T08:25:26.902Z,11.23
2022-10-30T08:27:29.340Z,13.65
2022-10-30T08:29:31.437Z,12.88
2022-10-30T08:31:36.538Z,12.57
2022-10-30T08:33:38.622Z,11.82
2022-10-30T08:35:48.280Z,13.85
2022-10-30T08:37:50.191Z,11.45
2022-10-30T08:39:52.251Z,9.40
2022-10-30T08:41:54.231Z,12.65
2022-10-30T08:43:56.544Z,9.48
2022-10-30T08:46:16.012Z,10.80
2022-10-30T08:48:21.011Z,9.95
2022-10-30T08:50:23.321Z,12.70
2022-10-30T08:52:25.436Z,9.23
2022-10-30T08:54:27.435Z,9.05
2022-10-30T08:56:29.493Z,13.23
2022-10-30T08:58:34.217Z,9.98
2022-10-30T09:00:52.545Z,10.18
2022-10-30T09:02:57.571Z,9.65
2022-10-30T09:05:03.397Z,10.38
2022-10-30T09:07:14.065Z,7.72
2022-10-30T09:09:20.196Z,9.35
2022-10-30T09:11:22.297Z,10.55
2022-10-30T09:13:46.788Z,10.32
2022-10-30T09:15:54.708Z,9.85
2022-10-30T09:18:20.534Z,8.82
2022-10-30T09:20:29.788Z,10.77
2022-10-30T09:22:31.986Z,8.48
2022-10-30T09:24:42.768Z,8.15
2022-10-30T09:26:44.717Z,10.13
2022-10-30T09:28:48.357Z,11.57
2022-10-30T09:32:59.181Z,9.82
2022-10-30T09:35:04.976Z,6.10
2022-10-30T09:37:07.137Z,8.10
2022-10-30T09:39:09.039Z,7.15
2022-10-30T09:41:41.043Z,9.25
2022-10-30T09:44:04.571Z,6.45
2022-10-30T09:46:37.360Z,5.87
2022-10-30T09:49:19.534Z,7.30
2022-10-30T09:51:55.762Z,6.90
2022-10-30T09:54:06.150Z,7.68
2022-10-30T09:56:24.792Z,8.73
2022-10-30T09:58:47.364Z,6.05
2022-10-30T10:01:07.823Z,6.63
2022-10-30T10:03:25.112Z,9.02
2022-10-30T10:05:54.475Z,6.82
2022-10-30T10:08:04.336Z,7.32
2022-10-30T10:10:17.935Z,6.53
2022-10-30T10:13:03.933Z,6.25
2022-10-30T10:15:23.690Z,6.38
2022-10-30T10:17:39.060Z,7.32
2022-10-30T10:20:05.522Z,6.40
2022-10-30T10:22:26.040Z,7.05
2022-10-30T10:24:33.265Z,11.35
2022-10-30T10:26:58.597Z,7.75
2022-10-30T10:29:26.638Z,18.55
2022-10-30T10:31:55.547Z,8.18
2022-10-30T10:34:24.076Z,7.15
2022-10-30T10:36:41.384Z,10.48
2022-10-30T10:38:59.516Z,11.68
2022-10-30T10:41:35.271Z,6.22
2022-10-30T10:43:43.449Z,85.72
2022-10-30T10:45:53.371Z,8.43
2022-10-30T10:48:25.624Z,6.03
2022-10-30T10:51:16.205Z,6.65
2022-10-30T10:53:31.031Z,50.92
2022-10-30T10:55:35.747Z,3.85
2022-10-30T10:57:46.520Z,5.18
2022-10-30T10:59:56.586Z,4.05
2022-10-30T11:02:24.797Z,7.82
2022-10-30T11:04:33.650Z,5.00
2022-10-30T11:06:41.388Z,7.38
2022-10-30T11:08:43.251Z,4.35
2022-10-30T11:10:49.824Z,4.70
2022-10-30T11:12:52.285Z,7.97
2022-10-30T11:14:54.113Z,4.88
2022-10-30T11:17:24.722Z,4.53
2022-10-30T11:19:30.109Z,5.10
2022-10-30T11:21:38.444Z,7.03
2022-10-30T11:23:48.748Z,7.28
2022-10-30T11:25:53.704Z,5.35
2022-10-30T11:27:59.374Z,3.70
2022-10-30T11:30:04.511Z,3.58
2022-10-30T11:32:06.562Z,4.50
2022-10-30T11:34:35.831Z,6.13
2022-10-30T11:36:38.181Z,4.53
2022-10-30T11:38:42.972Z,5.88
2022-10-30T11:40:48.805Z,7.90
2022-10-30T11:42:59.368Z,7.88
2022-10-30T11:45:01.593Z,5.68
2022-10-30T11:47:04.984Z,6.85
2022-10-30T11:49:07.256Z,6.97
2022-10-30T11:51:09.510Z,4.43
2022-10-30T11:53:20.320Z,6.45
2022-10-30T11:55:55.805Z,8.80
2022-10-30T11:57:59.417Z,4.60
2022-10-30T12:00:06.039Z,6.22
2022-10-30T12:02:32.191Z,6.30
2022-10-30T12:04:39.562Z,6.03
2022-10-30T12:06:41.771Z,6.43
2022-10-30T12:09:12.939Z,6.88
2022-10-30T12:11:14.857Z,8.15
2022-10-30T12:13:29.062Z,11.10
2022-10-30T12:15:36.700Z,6.72
2022-10-30T12:17:42.027Z,7.03
2022-10-30T12:19:55.506Z,9.75
2022-10-30T12:22:01.692Z,8.88
2022-10-30T12:24:15.053Z,15.65
2022-10-30T12:26:19.671Z,8.20
2022-10-30T12:28:27.575Z,12.23
2022-10-30T12:30:37.774Z,8.05
2022-10-30T12:33:22.799Z,5.40
2022-10-30T12:37:42.280Z,6.72
2022-10-30T12:40:02.023Z,5.35
2022-10-30T12:42:24.412Z,5.50
2022-10-30T12:44:38.117Z,5.32
2022-10-30T12:46:50.795Z,9.70
2022-10-30T12:49:02.303Z,5.10
2022-10-30T12:51:41.712Z,5.85
2022-10-30T12:53:57.968Z,5.50
2022-10-30T12:56:07.035Z,7.43
2022-10-30T12:58:33.127Z,6.53
2022-10-30T13:00:48.443Z,6.95
2022-10-30T13:03:11.714Z,6.20
2022-10-30T13:05:40.478Z,8.38
2022-10-30T13:07:50.235Z,10.48
2022-10-30T13:10:23.091Z,6.75
2022-10-30T13:12:34.915Z,8.43
2022-10-30T13:14:45.045Z,8.25
2022-10-30T13:16:47.318Z,7.60
2022-10-30T13:18:51.700Z,5.45
2022-10-30T13:21:12.684Z,6.63
2022-10-30T13:23:28.263Z,7.05
2022-10-30T13:25:52.914Z,6.68
2022-10-30T13:28:28.727Z,13.57
2022-10-30T13:30:37.950Z,105.30
2022-10-30T13:33:01.905Z,26.88
2022-10-30T13:35:28.896Z,32.05
2022-10-30T13:37:58.217Z,24.17
2022-10-30T13:40:03.011Z,56.88
2022-10-30T13:42:26.008Z,49.45
2022-10-30T13:44:47.071Z,33.22
2022-10-30T13:47:07.768Z,26.02
2022-10-30T13:49:17.548Z,35.75
2022-10-30T13:51:25.429Z,44.78
2022-10-30T13:53:31.639Z,20.63
2022-10-30T13:55:35.785Z,86.75
2022-10-30T13:57:44.463Z,67.85
2022-10-30T14:00:29.839Z,43.95
2022-10-30T14:02:41.280Z,33.38
2022-10-30T14:05:02.342Z,31.50
2022-10-30T14:07:19.303Z,25.48
2022-10-30T14:09:59.276Z,20.52
2022-10-30T14:12:21.968Z,18.05
2022-10-30T14:14:23.985Z,20.05
2022-10-30T14:16:46.672Z,19.90
2022-10-30T14:19:01.355Z,26.33
2022-10-30T14:21:38.243Z,29.13
2022-10-30T14:23:40.315Z,71.65
2022-10-30T14:25:42.742Z,99.38
2022-10-30T14:27:56.317Z,57.70
2022-10-30T14:29:59.632Z,37.72
2022-10-30T14:32:16.266Z,28.95
2022-10-30T14:34:52.328Z,24.25
2022-10-30T14:36:54.661Z,17.05
2022-10-30T14:39:13.523Z,22.20
2022-10-30T14:41:22.992Z,32.58
2022-10-30T14:44:06.133Z,32.13
2022-10-30T14:46:28.222Z,25.92
2022-10-30T14:48:52.569Z,23.45
2022-10-30T14:51:19.335Z,94.50
2022-10-30T14:53:39.128Z,112.50
2022-10-30T14:56:00.720Z,119.07
2022-10-30T14:58:02.621Z,44.60
2022-10-30T15:00:22.903Z,41.00
2022-10-30T15:02:36.525Z,41.20
2022-10-30T15:05:08.833Z,32.03
2022-10-30T15:07:38.487Z,31.95
2022-10-30T15:10:08.328Z,29.95
2022-10-30T15:12:13.206Z,93.18
2022-10-30T15:14:53.445Z,179.68
2022-10-30T15:16:56.362Z,197.48
2022-10-30T15:19:06.491Z,133.00
2022-10-30T15:21:15.278Z,37.05
2022-10-30T15:23:25.423Z,76.70
2022-10-30T15:25:33.776Z,40.88
2022-10-30T15:27:43.781Z,47.85
2022-10-30T15:29:52.341Z,29.23
2022-10-30T15:32:02.705Z,47.65
2022-10-30T15:34:21.179Z,52.22
2022-10-30T15:36:25.928Z,38.92
2022-10-30T15:38:28.180Z,50.65
2022-10-30T15:40:30.978Z,52.97
2022-10-30T15:42:33.019Z,51.83
2022-10-30T15:44:41.504Z,54.60
2022-10-30T15:46:48.501Z,54.28
2022-10-30T15:48:50.701Z,104.35
2022-10-30T15:51:02.444Z,254.48
2022-10-30T15:53:04.490Z,110.38
2022-10-30T15:55:10.686Z,59.65
2022-10-30T15:57:56.952Z,79.90
2022-10-30T15:59:52.050Z,84.97
2022-10-30T16:01:56.265Z,71.07
2022-10-30T16:03:58.697Z,81.90
2022-10-30T16:06:27.066Z,84.20
2022-10-30T16:08:29.029Z,79.00
2022-10-30T16:10:35.865Z,63.25
2022-10-30T16:12:37.939Z,65.10
2022-10-30T16:14:39.876Z,65.50
2022-10-30T16:16:43.296Z,65.88
2022-10-30T16:18:45.388Z,60.95
2022-10-30T16:20:56.501Z,81.32
2022-10-30T16:22:58.632Z,63.97
2022-10-30T16:25:03.242Z,60.45
2022-10-30T16:27:14.341Z,61.05
2022-10-30T16:29:22.179Z,62.17
2022-10-30T16:31:27.775Z,70.45
2022-10-30T16:33:34.226Z,87.78
2022-10-30T16:35:36.408Z,89.63
2022-10-30T16:37:40.092Z,75.93
2022-10-30T16:41:46.001Z,71.68
2022-10-30T16:44:19.906Z,72.07
2022-10-30T16:46:35.533Z,86.83
2022-10-30T16:48:37.424Z,80.55
2022-10-30T16:50:39.757Z,78.32
2022-10-30T16:52:42.705Z,72.25
2022-10-30T16:55:08.067Z,67.75
2022-10-30T16:57:37.436Z,55.20
2022-10-30T16:59:48.514Z,62.20
2022-10-30T17:01:56.810Z,56.75
2022-10-30T17:04:00.461Z,69.07
2022-10-30T17:06:07.943Z,87.85
2022-10-30T17:08:19.148Z,88.72
2022-10-30T17:10:43.723Z,79.80
2022-10-30T17:12:48.675Z,62.67
2022-10-30T17:15:04.329Z,58.72
2022-10-30T17:17:21.741Z,67.38
2022-10-30T17:19:32.677Z,57.97
2022-10-30T17:21:43.067Z,59.33
2022-10-30T17:24:05.388Z,58.20
2022-10-30T17:26:11.500Z,73.88
2022-10-30T17:28:28.876Z,86.63
2022-10-30T17:30:42.902Z,70.88
2022-10-30T17:34:48.710Z,133.13
2022-10-30T17:36:54.796Z,201.45
2022-10-30T17:38:56.753Z,209.80
2022-10-30T17:40:59.557Z,188.98
2022-10-30T17:43:01.593Z,166.37
2022-10-30T17:45:08.220Z,164.10
2022-10-30T17:47:18.713Z,179.15
2022-10-30T17:49:28.148Z,171.25
2022-10-30T17:51:30.081Z,162.80
2022-10-30T17:53:32.276Z,157.80
2022-10-30T17:55:36.112Z,151.32
2022-10-30T17:57:38.049Z,141.23
2022-10-30T17:59:41.123Z,131.55
2022-10-30T18:01:43.711Z,140.35
2022-10-30T18:03:46.236Z,125.63
2022-10-30T18:05:50.140Z,129.98
2022-10-30T18:07:52.141Z,133.07
2022-10-30T18:09:55.666Z,108.70
2022-10-30T18:11:57.990Z,116.05
2022-10-30T18:14:04.571Z,147.10
2022-10-30T18:16:07.140Z,116.13
2022-10-30T18:18:10.561Z,115.53
2022-10-30T18:20:14.449Z,118.75
2022-10-30T18:22:22.089Z,140.70
2022-10-30T18:24:27.148Z,140.90
2022-10-30T18:26:30.559Z,146.07
2022-10-30T18:28:32.688Z,137.25
2022-10-30T18:30:34.849Z,138.13
2022-10-30T18:32:36.917Z,123.88
2022-10-30T18:34:39.162Z,108.05
2022-10-30T18:36:46.777Z,120.53
2022-10-30T18:38:49.071Z,118.22
2022-10-30T18:40:59.096Z,113.03
2022-10-30T18:43:01.969Z,132.43
2022-10-30T18:45:44.292Z,103.43
2022-10-30T18:47:46.894Z,75.47
2022-10-30T18:49:51.738Z,79.57
2022-10-30T18:51:57.903Z,71.47
2022-10-30T18:54:00.141Z,56.40
2022-10-30T18:56:19.502Z,52.22
2022-10-30T18:58:22.946Z,43.22
2022-10-30T19:00:34.980Z,40.55
2022-10-30T19:02:50.367Z,44.05
2022-10-30T19:04:58.645Z,39.50
2022-10-30T19:07:03.305Z,45.53
2022-10-30T19:09:11.153Z,43.30
2022-10-30T19:11:24.558Z,90.15
2022-10-30T19:13:32.982Z,69.57
2022-10-30T19:15:40.141Z,69.72
2022-10-30T19:17:56.363Z,77.30
2022-10-30T19:20:09.638Z,73.38
2022-10-30T19:22:17.308Z,54.83
2022-10-30T19:24:19.156Z,66.65
2022-10-30T19:26:21.433Z,65.10
2022-10-30T19:28:23.319Z,61.80
2022-10-30T19:33:12.330Z,57.00
2022-10-30T19:35:32.277Z,54.13
2022-10-30T19:38:09.398Z,57.10
2022-10-30T19:40:39.746Z,51.50
2022-10-30T19:42:47.076Z,51.25
2022-10-30T19:44:50.627Z,46.92
2022-10-30T19:46:52.630Z,41.22
2022-10-30T19:48:57.765Z,44.33
2022-10-30T19:51:00.792Z,41.33
2022-10-30T19:53:13.719Z,45.03
2022-10-30T19:55:17.287Z,49.58
2022-10-30T19:59:21.108Z,46.97
2022-10-30T20:01:23.499Z,38.80
2022-10-30T20:03:25.396Z,38.90
2022-10-30T20:05:33.582Z,40.08
2022-10-30T20:08:02.048Z,35.92
2022-10-30T20:10:21.862Z,40.08
2022-10-30T20:12:41.385Z,46.63
2022-10-30T20:17:21.136Z,69.80
2022-10-30T20:22:28.425Z,85.28
2022-10-30T20:24:52.183Z,62.08
2022-10-30T20:29:19.585Z,62.90
2022-10-30T20:31:26.076Z,117.03
2022-10-30T20:33:28.819Z,68.68
2022-10-30T20:35:30.960Z,69.47
2022-10-30T20:37:46.435Z,83.45
2022-10-30T20:40:49.424Z,92.93
2022-10-30T20:42:58.433Z,85.30
2022-10-30T20:45:07.485Z,62.90
2022-10-30T20:47:20.917Z,57.83
2022-10-30T20:49:27.556Z,56.22
2022-10-30T20:51:35.955Z,61.47
2022-10-30T20:53:56.102Z,55.70
2022-10-30T20:59:21.052Z,99.78
2022-10-30T21:01:31.348Z,125.65
2022-10-30T21:03:41.788Z,170.88
2022-10-30T21:06:14.128Z,208.88
2022-10-30T21:08:29.378Z,179.10
2022-10-30T21:10:48.511Z,137.55
2022-10-30T21:13:03.627Z,117.18
2022-10-30T21:15:20.883Z,147.50
2022-10-30T21:17:26.529Z,137.35
2022-10-30T21:19:31.774Z,130.02
2022-10-30T21:21:45.190Z,114.03
2022-10-30T21:23:56.099Z,108.78
2022-10-30T21:26:18.297Z,108.90
2022-10-30T21:28:36.193Z,70.50
2022-10-30T21:31:04.100Z,75.38
2022-10-30T21:33:18.367Z,63.15
2022-10-30T21:35:26.106Z,52.22
2022-10-30T21:42:09.348Z,53.20
2022-10-30T21:44:22.098Z,51.17
2022-10-30T21:46:31.713Z,61.17
2022-10-30T21:48:34.083Z,54.83
2022-10-30T21:50:38.744Z,50.05
2022-10-30T21:52:57.746Z,56.78
2022-10-30T21:55:04.692Z,50.00
2022-10-30T21:57:07.617Z,62.22
2022-10-30T21:59:13.518Z,62.60
2022-10-30T22:01:25.402Z,55.78
2022-10-30T22:03:32.673Z,59.95
2022-10-30T22:05:41.560Z,50.42
2022-10-30T22:07:45.420Z,59.28
2022-10-30T22:09:51.098Z,60.92
2022-10-30T22:11:55.371Z,59.65
2022-10-30T22:14:05.130Z,56.67
2022-10-30T22:18:40.722Z,63.55
2022-10-30T22:20:55.386Z,75.05
2022-10-30T22:23:05.474Z,74.50
2022-10-30T22:25:33.804Z,67.43
2022-10-30T22:27:35.895Z,75.72
2022-10-30T22:29:38.432Z,65.25
2022-10-30T22:32:01.145Z,74.95
2022-10-30T22:34:08.126Z,79.72
2022-10-30T22:36:30.055Z,78.20
2022-10-30T22:38:32.760Z,70.55
2022-10-30T22:40:35.358Z,74.75
2022-10-30T22:42:45.737Z,68.22
2022-10-30T22:44:50.780Z,69.40
2022-10-30T22:46:55.705Z,60.38
2022-10-30T22:48:58.762Z,69.47
2022-10-30T22:51:03.731Z,57.60
2022-10-30T22:53:05.969Z,63.60
2022-10-30T22:55:16.047Z,78.85
2022-10-30T22:57:24.777Z,111.90
2022-10-30T22:59:39.683Z,96.68
2022-10-30T23:01:44.294Z,74.90
2022-10-30T23:03:49.146Z,67.43
2022-10-30T23:05:59.795Z,67.35
2022-10-30T23:08:05.004Z,78.88
2022-10-30T23:10:10.038Z,72.28
2022-10-30T23:12:12.398Z,100.75
2022-10-30T23:14:14.891Z,62.10
2022-10-30T23:16:24.818Z,58.80
2022-10-30T23:20:48.624Z,78.00
2022-10-30T23:23:15.625Z,73.38
2022-10-30T23:25:19.620Z,93.32
2022-10-30T23:27:24.656Z,106.50
2022-10-30T23:29:31.637Z,83.90
2022-10-30T23:31:39.564Z,91.43
2022-10-30T23:33:46.900Z,97.43
2022-10-30T23:36:08.261Z,71.47
2022-10-30T23:38:23.106Z,71.45
2022-10-30T23:40:25.466Z,56.25
2022-10-30T23:42:33.324Z,61.45
2022-10-30T23:44:36.319Z,52.25
2022-10-30T23:46:41.337Z,53.30
2022-10-30T23:48:57.628Z,62.50
2022-10-30T23:51:16.841Z,66.47
2022-10-30T23:53:24.504Z,52.22
2022-10-30T23:55:27.546Z,49.15
2022-10-30T23:57:44.048Z,52.17
2022-10-30T23:59:49.738Z,58.25
